Time;durP1;ratioP1;P1;durP2;ratioP2;P2;SDS_P1;SDS_P2;PMS_P1;PMS_P2;Temp;Humidity;BMP_temperature;BMP_pressure;BME280_temperature;BME280_humidity;BME280_pressure;Samples;Min_cycle;Max_cycle;Signal;HPM_P1;HPM_P2
2022/01/28 00:02:13;;;;;;;6.30;1.50;;;;;;;3.67;88.57;100075.66;1733988;82;21007;-71
2022/01/28 00:04:28;;;;;;;3.20;1.30;;;;;;;3.61;88.44;100070.57;1733942;82;21481;-71
2022/01/28 00:06:55;;;;;;;4.67;1.43;;;;;;;3.56;88.56;100056.38;1736856;82;21520;-71
2022/01/28 00:09:22;;;;;;;7.30;1.63;;;;;;;3.54;88.60;100065.89;1736834;82;21088;-72
2022/01/28 00:11:50;;;;;;;5.40;1.50;;;;;;;3.53;88.54;100063.34;1736341;82;20985;-71
2022/01/28 00:14:27;;;;;;;8.53;1.50;;;;;;;3.54;88.56;100071.08;1736651;82;21543;-71
2022/01/28 00:38:50;;;;;;;6.43;1.30;;;;;;;3.84;87.19;100046.05;1736275;82;21545;-71
2022/01/28 00:41:17;;;;;;;6.63;1.60;;;;;;;3.86;87.25;100055.52;1736752;82;21021;-71
2022/01/28 00:43:45;;;;;;;5.73;1.40;;;;;;;3.86;87.11;100064.59;1736531;82;21027;-72
2022/01/28 00:46:12;;;;;;;5.17;1.30;;;;;;;3.87;86.99;100057.67;1736634;82;21028;-75
2022/01/28 00:48:39;;;;;;;6.23;1.37;;;;;;;3.85;86.77;100058.97;1731884;82;21110;-71
2022/01/28 00:51:07;;;;;;;6.60;1.50;;;;;;;3.84;86.38;100062.90;1719283;83;22192;-71
2022/01/28 00:53:34;;;;;;;6.03;1.30;;;;;;;3.84;86.44;100059.02;1719486;83;21024;-71
2022/01/28 00:56:01;;;;;;;7.20;1.40;;;;;;;3.84;86.39;100058.56;1719424;83;21035;-77
2022/01/28 00:58:28;;;;;;;6.30;1.10;;;;;;;3.83;86.40;100055.57;1719660;83;21068;-71
2022/01/28 01:00:55;;;;;;;6.13;1.13;;;;;;;3.86;86.00;100059.86;1719402;83;21139;-71
2022/01/28 01:03:22;;;;;;;7.40;1.20;;;;;;;3.87;85.91;100055.92;1719626;83;21473;-72
2022/01/28 01:05:49;;;;;;;3.97;1.07;;;;;;;3.91;85.86;100065.39;1719447;83;21063;-71
2022/01/28 01:08:16;;;;;;;6.27;1.40;;;;;;;3.93;85.28;100041.56;1719596;83;21043;-71
2022/01/28 01:10:43;;;;;;;5.40;1.23;;;;;;;3.98;85.23;100050.13;1719370;83;21016;-71
2022/01/28 01:13:10;;;;;;;6.57;1.83;;;;;;;4.00;85.01;100063.94;1719434;83;21145;-73
2022/01/28 01:15:42;;;;;;;6.73;1.60;;;;;;;4.02;84.91;100101.09;1719274;83;21072;-71
2022/01/28 01:18:16;;;;;;;5.43;1.20;;;;;;;4.04;84.43;100049.17;1718763;83;20996;-71
2022/01/28 01:20:54;;;;;;;9.23;1.20;;;;;;;4.05;84.65;100059.10;1718478;83;21288;-71
2022/01/28 01:23:16;;;;;;;6.00;1.70;;;;;;;4.05;84.23;100066.88;1716379;83;21544;-71
2022/01/28 01:25:57;;;;;;;8.07;1.50;;;;;;;4.04;84.21;100047.88;1718814;83;21107;-77
2022/01/28 01:28:19;;;;;;;6.97;1.03;;;;;;;4.03;84.43;100057.41;1717068;83;21536;-71
2022/01/28 01:30:45;;;;;;;7.70;1.47;;;;;;;4.03;83.97;100043.59;1719363;83;21001;-71
2022/01/28 01:33:15;;;;;;;6.03;1.47;;;;;;;4.05;84.19;100043.55;1719332;83;21027;-71
2022/01/28 01:35:42;;;;;;;4.78;1.35;;;;;;;4.05;84.01;100058.69;1719514;83;21012;-74
2022/01/28 01:38:11;;;;;;;6.87;1.47;;;;;;;4.06;83.74;100047.88;1719339;83;21143;-71
2022/01/28 01:40:49;;;;;;;5.23;1.47;;;;;;;4.05;83.81;100048.31;1719181;83;21043;-72
2022/01/28 01:43:21;;;;;;;7.90;1.50;;;;;;;4.07;83.52;100050.87;1717642;83;27672;-71
2022/01/28 01:46:00;;;;;;;5.73;1.40;;;;;;;4.07;83.19;100060.80;1718226;83;20997;-72
2022/01/28 01:53:48;;;;;;;8.17;1.50;;;;;;;4.02;82.48;100067.37;1736537;82;21066;-74
2022/01/28 01:56:17;;;;;;;5.33;1.13;;;;;;;4.04;82.53;100080.30;1736515;82;22038;-72
2022/01/28 01:58:45;;;;;;;7.90;1.10;;;;;;;4.04;82.08;100064.73;1736678;82;21015;-71
2022/01/28 02:01:13;;;;;;;9.73;1.13;;;;;;;4.05;82.87;100068.18;1736587;82;21535;-73
2022/01/28 02:03:41;;;;;;;8.70;1.77;;;;;;;4.01;82.51;100078.61;1736772;82;21911;-71
2022/01/28 02:06:08;;;;;;;6.07;0.93;;;;;;;3.98;82.14;100083.84;1736276;82;21008;-72
2022/01/28 02:08:35;;;;;;;6.30;1.10;;;;;;;3.94;82.40;100092.56;1736703;82;21019;-71
2022/01/28 02:11:03;;;;;;;7.93;1.03;;;;;;;3.91;82.61;100089.17;1736525;82;21011;-78
2022/01/28 02:13:34;;;;;;;7.20;1.40;;;;;;;3.86;82.92;100089.23;1736731;82;21088;-73
2022/01/28 02:16:01;;;;;;;9.00;1.30;;;;;;;3.82;82.72;100093.17;1736451;82;21064;-72
2022/01/28 02:18:28;;;;;;;6.17;1.20;;;;;;;3.77;83.34;100085.03;1736691;82;21019;-77
2022/01/28 02:21:04;;;;;;;9.17;1.60;;;;;;;3.72;83.39;100089.42;1736363;82;21027;-76
2022/01/28 02:23:25;;;;;;;4.80;1.75;;;;;;;3.67;83.50;100089.06;1735750;82;21035;-72
2022/01/28 02:25:56;;;;;;;7.97;1.77;;;;;;;3.61;83.43;100084.83;1736526;82;21560;-72
2022/01/28 02:28:24;;;;;;;8.48;1.12;;;;;;;3.57;83.69;100107.34;1736707;82;21112;-77
2022/01/28 02:30:52;;;;;;;4.63;1.00;;;;;;;3.52;83.79;100100.06;1736418;82;21014;-73
2022/01/28 02:33:22;;;;;;;6.67;1.23;;;;;;;3.48;83.91;100106.59;1736704;82;21011;-73
2022/01/28 02:35:49;;;;;;;10.57;1.33;;;;;;;3.43;84.19;100092.39;1736308;82;21027;-79
2022/01/28 02:38:24;;;;;;;7.27;1.60;;;;;;;3.40;84.44;100105.83;1736784;82;21039;-73
2022/01/28 02:40:55;;;;;;;6.23;1.33;;;;;;;3.37;84.56;100123.56;1735094;82;21164;-72
2022/01/28 02:45:53;;;;;;;10.13;1.33;;;;;;;3.32;85.05;100115.83;1736452;82;21042;-72
2022/01/28 02:48:25;;;;;;;6.70;2.17;;;;;;;3.30;85.16;100110.28;1736425;82;21054;-72
2022/01/28 02:53:29;;;;;;;7.97;1.27;;;;;;;3.27;85.22;100089.16;1720741;83;21180;-76
2022/01/28 02:56:02;;;;;;;;;;;;;;;3.28;85.48;100102.52;1723536;83;21028;-73
2022/01/28 02:58:27;;;;;;;8.73;1.70;;;;;;;3.28;85.57;100104.25;1720495;83;20183;-72
2022/01/28 03:00:57;;;;;;;8.33;1.20;;;;;;;3.27;85.47;100094.75;1721098;83;21051;-73
2022/01/28 03:03:25;;;;;;;7.78;1.60;;;;;;;3.29;85.65;100131.86;1721019;83;26789;-72
2022/01/28 03:05:53;;;;;;;8.50;1.63;;;;;;;3.28;85.69;100125.83;1721035;83;21102;-72
2022/01/28 03:08:28;;;;;;;8.30;1.47;;;;;;;3.29;85.80;100111.13;1720768;83;21544;-72
2022/01/28 03:13:59;;;;;;;7.67;1.53;;;;;;;3.28;85.88;100131.00;1720839;83;21024;-72
2022/01/28 03:16:16;;;;;;;10.40;1.40;;;;;;;3.30;85.92;100125.83;1719087;83;21518;-72
2022/01/28 03:18:56;;;;;;;9.47;1.70;;;;;;;3.29;85.97;100135.30;1720845;83;21109;-73
2022/01/28 03:21:22;;;;;;;10.90;1.87;;;;;;;3.30;86.12;100157.76;1719117;83;21015;-78
2022/01/28 03:23:49;;;;;;;6.17;1.17;;;;;;;3.32;86.05;100144.33;1720793;83;21100;-73
2022/01/28 03:26:16;;;;;;;10.83;2.07;;;;;;;3.36;86.12;100171.08;1721008;83;21028;-72
2022/01/28 03:28:44;;;;;;;7.10;1.90;;;;;;;3.40;86.11;100155.91;1720695;83;20992;-78
2022/01/28 03:31:11;;;;;;;11.67;1.50;;;;;;;3.42;85.86;100154.16;1721067;83;21105;-73
2022/01/28 03:33:38;;;;;;;10.13;2.13;;;;;;;3.47;85.95;100160.59;1720778;83;20999;-77
2022/01/28 03:36:11;;;;;;;9.63;1.70;;;;;;;3.49;85.91;100158.41;1721154;83;21015;-73
2022/01/28 03:38:41;;;;;;;6.33;1.23;;;;;;;3.50;85.78;100180.84;1720714;83;21024;-72
2022/01/28 03:41:17;;;;;;;6.22;1.32;;;;;;;3.55;85.72;100149.70;1721669;83;21032;-72
2022/01/28 03:43:45;;;;;;;8.37;1.80;;;;;;;3.58;85.45;100175.58;1720975;83;21093;-73
2022/01/28 03:46:13;;;;;;;8.00;1.57;;;;;;;3.63;85.35;100153.06;1720859;83;21501;-72
2022/01/28 03:48:40;;;;;;;7.73;1.50;;;;;;;3.68;85.26;100164.64;1720933;83;21032;-72
2022/01/28 03:51:07;;;;;;;6.60;1.30;;;;;;;3.69;85.00;100165.93;1719394;82;20973;-73
2022/01/28 03:53:34;;;;;;;9.17;1.87;;;;;;;3.73;84.88;100173.22;1719303;83;21274;-73
2022/01/28 03:56:01;;;;;;;7.73;2.00;;;;;;;3.73;84.67;100161.11;1719409;83;21117;-72
2022/01/28 03:58:28;;;;;;;8.10;1.30;;;;;;;3.76;84.41;100186.14;1719224;83;21068;-73
2022/01/28 04:00:57;;;;;;;5.13;1.33;;;;;;;3.78;84.43;100170.13;1719600;83;21465;-73
2022/01/28 04:11:30;;;;;;;6.60;1.60;;;;;;;3.88;83.30;100179.93;1719428;83;21071;-73
2022/01/28 04:14:09;;;;;;;8.97;1.43;;;;;;;3.91;83.07;100178.17;1719418;83;20993;-72
2022/01/28 04:16:34;;;;;;;9.47;2.13;;;;;;;3.93;82.99;100199.73;1718382;83;20980;-73
2022/01/28 04:19:01;;;;;;;7.63;1.47;;;;;;;3.95;83.24;100191.50;1718930;83;21262;-72
2022/01/28 04:21:29;;;;;;;7.17;1.80;;;;;;;3.96;83.22;100237.33;1719728;83;21692;-73
2022/01/28 04:23:56;;;;;;;8.47;1.90;;;;;;;3.98;82.71;100200.98;1719389;83;22049;-73
2022/01/28 04:26:23;;;;;;;8.07;1.63;;;;;;;4.00;82.43;100216.09;1710974;83;21015;-73
2022/01/28 04:28:51;;;;;;;10.40;1.73;;;;;;;3.99;82.52;100215.23;1702049;84;21035;-73
2022/01/28 04:31:18;;;;;;;9.83;1.90;;;;;;;3.99;82.27;100218.25;1700913;84;21047;-79
2022/01/28 04:33:45;;;;;;;10.53;1.93;;;;;;;3.99;82.33;100207.88;1702026;84;21524;-73
2022/01/28 04:36:14;;;;;;;9.93;2.03;;;;;;;3.97;82.03;100220.88;1700777;84;21027;-72
2022/01/28 04:38:52;;;;;;;6.47;1.40;;;;;;;3.93;81.75;100224.38;1701963;84;21469;-72
2022/01/28 04:43:45;;;;;;;8.00;1.73;;;;;;;3.89;81.46;100225.75;1702163;84;21003;-72
2022/01/28 04:46:15;;;;;;;7.53;1.57;;;;;;;3.87;81.78;100232.67;1699764;84;21205;-80
2022/01/28 04:48:48;;;;;;;12.33;1.83;;;;;;;3.87;81.51;100237.86;1700973;84;21019;-73
2022/01/28 04:58:45;;;;;;;9.30;1.70;;;;;;;3.84;81.74;100271.16;1741509;82;21215;-72
2022/01/28 05:27:36;;;;;;;5.77;1.60;;;;;;;3.71;81.90;100320.98;1741729;82;21027;-78
2022/01/28 05:29:56;;;;;;;10.27;1.63;;;;;;;3.71;81.81;100325.31;1740032;82;21512;-76
2022/01/28 05:32:24;;;;;;;6.50;1.80;;;;;;;3.71;81.79;100322.72;1741863;82;20999;-72
2022/01/28 05:34:51;;;;;;;7.87;1.53;;;;;;;3.72;81.82;100331.80;1741679;82;21046;-72
2022/01/28 05:37:18;;;;;;;12.57;2.53;;;;;;;3.72;81.88;100334.83;1741780;82;21097;-74
2022/01/28 05:39:45;;;;;;;9.87;2.50;;;;;;;3.72;81.81;100340.02;1741271;82;20992;-71
2022/01/28 05:42:12;;;;;;;9.33;1.90;;;;;;;3.71;81.73;100337.83;1741550;82;21468;-75
2022/01/28 05:44:39;;;;;;;10.10;1.50;;;;;;;3.71;81.92;100339.13;1741497;82;21469;-72
2022/01/28 05:47:06;;;;;;;9.80;2.07;;;;;;;3.71;81.69;100353.38;1741575;82;21023;-71
2022/01/28 05:49:35;;;;;;;7.97;1.80;;;;;;;3.71;81.66;100339.56;1741428;82;21144;-72
2022/01/28 05:52:02;;;;;;;12.87;2.43;;;;;;;3.72;81.78;100339.56;1740269;82;21050;-79
2022/01/28 05:54:29;;;;;;;7.17;1.57;;;;;;;3.73;81.60;100353.38;1740226;82;21044;-72
2022/01/28 05:56:56;;;;;;;10.67;1.87;;;;;;;3.72;81.54;100345.20;1740232;82;21098;-72
2022/01/28 05:59:24;;;;;;;8.73;1.50;;;;;;;3.72;81.60;100357.72;1740202;82;20976;-71
2022/01/28 06:01:51;;;;;;;8.97;1.70;;;;;;;3.73;81.51;100384.48;1740243;82;21500;-72
2022/01/28 06:04:19;;;;;;;10.13;2.10;;;;;;;3.75;81.55;100382.31;1740175;82;21022;-72
2022/01/28 06:06:47;;;;;;;13.23;1.80;;;;;;;3.76;81.41;100367.16;1740085;82;21011;-71
2022/01/28 06:09:14;;;;;;;11.43;2.03;;;;;;;3.76;81.41;100367.16;1740146;82;21023;-72
2022/01/28 06:11:43;;;;;;;12.50;2.13;;;;;;;3.78;81.45;100367.16;1740440;82;20992;-72
2022/01/28 06:14:13;;;;;;;13.47;2.33;;;;;;;3.79;81.38;100369.72;1740188;82;21137;-71
2022/01/28 06:16:41;;;;;;;9.30;2.13;;;;;;;3.79;81.01;100370.16;1740194;82;21488;-72
2022/01/28 06:19:08;;;;;;;9.50;2.13;;;;;;;3.79;81.20;100371.46;1740186;82;21579;-72
2022/01/28 06:21:35;;;;;;;9.97;2.00;;;;;;;3.79;81.27;100392.20;1740483;82;21083;-72
2022/01/28 06:24:02;;;;;;;9.80;2.10;;;;;;;3.77;81.31;100375.83;1740116;82;21091;-71
2022/01/28 06:26:30;;;;;;;9.43;2.00;;;;;;;3.77;81.17;100393.53;1740122;82;21204;-76
2022/01/28 06:28:57;;;;;;;8.87;2.60;;;;;;;3.78;81.34;100394.39;1740214;82;20967;-72
2022/01/28 06:31:25;;;;;;;12.23;2.60;;;;;;;3.77;81.33;100388.34;1740516;82;21019;-72
2022/01/28 06:33:52;;;;;;;7.57;2.00;;;;;;;3.77;81.40;100401.75;1740121;82;21070;-77
2022/01/28 06:36:21;;;;;;;10.23;1.80;;;;;;;3.76;80.88;100420.31;1740291;82;21034;-72
2022/01/28 06:38:49;;;;;;;12.10;2.30;;;;;;;3.75;80.89;100404.34;1740144;82;21133;-72
2022/01/28 06:41:16;;;;;;;6.83;1.67;;;;;;;3.76;81.10;100406.49;1740389;82;21034;-78
2022/01/28 06:43:43;;;;;;;9.30;1.80;;;;;;;3.74;81.33;100400.05;1740113;82;21008;-72
2022/01/28 06:46:10;;;;;;;11.43;2.27;;;;;;;3.74;81.38;100416.01;1740504;82;21556;-72
2022/01/28 06:48:37;;;;;;;9.47;1.93;;;;;;;3.72;81.41;100414.75;1740101;82;21007;-72
2022/01/28 06:51:04;;;;;;;11.67;2.30;;;;;;;3.71;81.31;100419.92;1741076;82;21118;-71
2022/01/28 06:53:31;;;;;;;10.87;2.60;;;;;;;3.70;81.14;100436.37;1742063;82;21484;-71
2022/01/28 06:55:58;;;;;;;12.93;2.30;;;;;;;3.69;81.39;100426.44;1741938;82;21008;-71
2022/01/28 06:58:25;;;;;;;13.37;2.27;;;;;;;3.70;81.23;100437.66;1741806;82;21117;-71
2022/01/28 07:00:52;;;;;;;10.13;2.33;;;;;;;3.69;81.40;100426.44;1742148;82;21504;-71
2022/01/28 07:03:20;;;;;;;11.33;1.90;;;;;;;3.70;81.03;100459.70;1741938;82;22084;-71
2022/01/28 07:05:47;;;;;;;8.83;1.43;;;;;;;3.68;81.30;100444.14;1741890;82;21293;-72
2022/01/28 07:08:14;;;;;;;13.67;2.63;;;;;;;3.68;81.49;100453.22;1741930;82;21059;-71
2022/01/28 07:10:42;;;;;;;11.07;1.93;;;;;;;3.68;81.20;100452.36;1741977;82;21070;-71
2022/01/28 07:13:11;;;;;;;7.33;1.80;;;;;;;3.68;81.29;100470.06;1742230;82;21042;-71
2022/01/28 07:15:38;;;;;;;14.83;2.10;;;;;;;3.69;81.56;100466.62;1742080;82;21261;-72
2022/01/28 07:18:05;;;;;;;10.17;2.20;;;;;;;3.69;81.46;100460.14;1742253;82;21073;-71
2022/01/28 07:20:36;;;;;;;12.57;2.33;;;;;;;3.70;81.62;100470.92;1741956;82;21031;-72
2022/01/28 07:23:03;;;;;;;11.43;2.25;;;;;;;3.71;81.66;100471.77;1742297;82;20999;-72
2022/01/28 07:25:31;;;;;;;10.43;2.10;;;;;;;3.72;81.62;100475.66;1741880;82;21031;-71
2022/01/28 07:27:59;;;;;;;12.30;2.40;;;;;;;3.73;81.44;100472.62;1742250;82;21119;-72
2022/01/28 07:30:26;;;;;;;12.17;2.60;;;;;;;3.74;81.31;100471.75;1741848;82;21066;-75
2022/01/28 07:32:53;;;;;;;10.17;2.33;;;;;;;3.74;81.38;100481.70;1742386;82;20987;-72
2022/01/28 07:35:20;;;;;;;14.63;3.73;;;;;;;3.75;81.22;100497.67;1741884;82;20943;-71
2022/01/28 07:37:47;;;;;;;10.73;2.47;;;;;;;3.74;81.21;100498.55;1742314;82;20992;-80
2022/01/28 07:40:14;;;;;;;14.47;2.30;;;;;;;3.73;81.34;100498.11;1741963;82;21129;-71
2022/01/28 07:42:42;;;;;;;10.87;2.50;;;;;;;3.72;81.41;100512.40;1741860;82;20991;-71
2022/01/28 07:45:13;;;;;;;10.13;2.30;;;;;;;3.70;81.29;100516.73;1741795;82;21543;-73
2022/01/28 07:47:40;;;;;;;12.57;2.63;;;;;;;3.66;81.48;100536.63;1746322;81;20955;-72
2022/01/28 07:50:10;;;;;;;13.77;2.67;;;;;;;3.63;81.67;100535.77;1755462;81;21004;-72
2022/01/28 07:52:38;;;;;;;10.38;2.67;;;;;;;3.56;81.82;100537.11;1740583;82;21105;-72
2022/01/28 07:55:09;;;;;;;13.37;2.97;;;;;;;3.49;81.82;100557.88;1747423;81;21022;-71
2022/01/28 07:57:35;;;;;;;17.53;3.23;;;;;;;3.43;82.15;100544.52;1741820;82;21050;-72
2022/01/28 08:00:07;;;;;;;11.27;2.30;;;;;;;3.37;82.29;100547.16;1741872;82;21023;-72
2022/01/28 08:02:36;;;;;;;10.53;2.67;;;;;;;3.32;82.50;100562.71;1741229;82;21638;-72
2022/01/28 08:05:03;;;;;;;17.07;3.27;;;;;;;3.27;82.77;100558.02;1741893;82;21137;-72
2022/01/28 08:07:30;;;;;;;12.90;2.30;;;;;;;3.24;82.95;100559.73;1741618;82;21502;-76
2022/01/28 08:09:57;;;;;;;12.33;2.60;;;;;;;3.22;83.14;100574.01;1742411;81;21039;-77
2022/01/28 08:12:25;;;;;;;13.17;2.87;;;;;;;3.21;83.37;100577.44;1751647;81;21076;-79
2022/01/28 08:14:51;;;;;;;14.93;2.43;;;;;;;3.20;83.49;100602.93;1740598;82;20999;-74
2022/01/28 08:17:19;;;;;;;13.67;3.10;;;;;;;3.20;83.73;100620.20;1736972;82;21508;-71
2022/01/28 08:19:47;;;;;;;14.83;2.80;;;;;;;3.23;83.88;100595.58;1745054;81;21042;-70
2022/01/28 08:22:14;;;;;;;14.83;2.90;;;;;;;3.27;83.91;100608.53;1752246;81;21467;-76
2022/01/28 08:24:41;;;;;;;16.33;3.90;;;;;;;3.29;83.96;100615.84;1743009;82;21021;-71
2022/01/28 08:27:08;;;;;;;16.33;3.83;;;;;;;3.32;84.02;100619.70;1742557;82;21554;-71
2022/01/28 08:29:35;;;;;;;12.50;2.97;;;;;;;3.35;84.13;100608.47;1742885;82;21112;-76
2022/01/28 08:32:02;;;;;;;14.23;3.90;;;;;;;3.38;84.10;100651.24;1742646;82;21017;-78
2022/01/28 08:34:31;;;;;;;21.53;3.40;;;;;;;3.38;84.16;100651.24;1742926;82;20973;-79
2022/01/28 08:37:03;;;;;;;12.70;3.90;;;;;;;3.39;84.16;100650.80;1742740;81;20965;-78
2022/01/28 08:39:27;;;;;;;12.97;3.50;;;;;;;3.39;84.18;100648.21;1744888;81;21063;-72
2022/01/28 08:41:55;;;;;;;12.03;3.37;;;;;;;3.40;84.17;100644.30;1747620;81;21122;-81
2022/01/28 08:44:22;;;;;;;16.77;3.33;;;;;;;3.42;84.25;100652.08;1742222;82;21519;-72
2022/01/28 08:46:49;;;;;;;14.73;3.30;;;;;;;3.44;84.34;100660.28;1718500;82;21058;-70
2022/01/28 08:49:16;;;;;;;11.83;2.50;;;;;;;3.46;84.43;100672.77;1736759;81;21048;-72
2022/01/28 08:51:44;;;;;;;14.30;3.00;;;;;;;3.49;84.53;100668.91;1741767;81;21194;-72
2022/01/28 08:54:11;;;;;;;11.60;2.90;;;;;;;3.53;84.51;100674.48;1740453;82;21788;-71
2022/01/28 08:56:38;;;;;;;11.63;2.60;;;;;;;3.57;84.64;100683.11;1740111;82;21015;-72
2022/01/28 08:59:05;;;;;;;18.00;3.93;;;;;;;3.61;84.54;100693.91;1740418;82;21479;-73
2022/01/28 09:01:31;;;;;;;11.00;2.70;;;;;;;3.62;84.62;100698.21;1740289;82;21437;-73
2022/01/28 09:03:58;;;;;;;14.37;2.93;;;;;;;3.62;84.59;100714.20;1740485;82;21003;-76
2022/01/28 09:06:25;;;;;;;15.30;3.67;;;;;;;3.60;84.59;100707.71;1740204;82;21042;-73
2022/01/28 09:08:55;;;;;;;19.47;4.10;;;;;;;3.60;84.65;100708.16;1740419;82;21038;-71
2022/01/28 09:13:49;;;;;;;15.83;4.27;;;;;;;3.61;84.78;100736.67;1740567;82;21086;-72
2022/01/28 09:16:17;;;;;;;13.97;4.93;;;;;;;3.61;84.78;100722.86;1740182;82;21620;-74
2022/01/28 09:18:45;;;;;;;14.13;3.30;;;;;;;3.60;84.74;100749.19;1740397;82;21649;-72
2022/01/28 09:21:13;;;;;;;12.33;2.43;;;;;;;3.58;84.75;100758.72;1740202;82;21477;-73
2022/01/28 09:23:41;;;;;;;11.47;2.63;;;;;;;3.56;84.72;100752.23;1740040;82;21512;-72
2022/01/28 09:26:08;;;;;;;14.40;3.30;;;;;;;3.52;84.79;100759.59;1740188;82;21563;-72
2022/01/28 09:28:35;;;;;;;13.47;3.40;;;;;;;3.49;84.92;100757.02;1740525;82;21066;-73
2022/01/28 09:31:04;;;;;;;14.10;3.30;;;;;;;3.47;85.04;100765.66;1740131;82;21856;-72
2022/01/28 09:33:30;;;;;;;15.63;3.80;;;;;;;3.43;85.08;100767.81;1740101;82;21019;-73
2022/01/28 09:35:57;;;;;;;17.13;3.60;;;;;;;3.39;85.21;100771.29;1740414;82;21055;-73
2022/01/28 09:38:24;;;;;;;18.00;4.67;;;;;;;3.36;85.53;100781.22;1740494;82;21459;-74
2022/01/28 09:40:52;;;;;;;18.57;4.50;;;;;;;3.32;85.50;100781.63;1740228;82;20987;-72
2022/01/28 09:43:19;;;;;;;15.53;4.10;;;;;;;3.32;85.56;100791.14;1740408;82;21113;-72
2022/01/28 09:45:50;;;;;;;21.50;5.83;;;;;;;3.31;85.71;100781.66;1740031;82;21069;-78
2022/01/28 09:48:19;;;;;;;15.83;4.35;;;;;;;3.30;85.75;100796.78;1740409;82;21034;-73
2022/01/28 09:50:46;;;;;;;15.53;3.13;;;;;;;3.24;85.88;100782.11;1740032;82;21090;-72
2022/01/28 09:53:15;;;;;;;13.37;2.70;;;;;;;3.30;85.93;100812.33;1741814;82;21007;-73
2022/01/28 09:55:45;;;;;;;11.43;2.93;;;;;;;3.32;86.05;100820.50;1741921;82;21144;-72
2022/01/28 09:58:12;;;;;;;15.20;3.43;;;;;;;3.34;86.04;100826.55;1742265;82;21007;-72
2022/01/28 10:00:39;;;;;;;14.57;3.67;;;;;;;3.36;86.12;100814.91;1741879;82;21452;-72
2022/01/28 10:03:09;;;;;;;15.73;4.07;;;;;;;3.40;86.14;100828.71;1742325;82;22042;-71
2022/01/28 10:05:42;;;;;;;14.47;4.78;;;;;;;3.43;86.19;100815.75;1742159;82;21260;-78
2022/01/28 10:08:26;;;;;;;16.37;5.10;;;;;;;3.46;86.28;100814.01;1742347;82;21097;-71
2022/01/28 10:11:04;;;;;;;21.97;5.83;;;;;;;3.51;86.31;100822.64;1741709;82;21054;-72
2022/01/28 10:13:47;;;;;;;17.33;3.50;;;;;;;3.60;86.33;100827.39;1742437;82;21015;-72
2022/01/28 10:16:30;;;;;;;16.37;4.30;;;;;;;3.67;86.36;100837.75;1741744;82;21027;-74
2022/01/28 10:19:06;;;;;;;19.87;4.90;;;;;;;3.75;86.30;100830.83;1742312;82;21070;-72
2022/01/28 10:21:39;;;;;;;13.27;4.17;;;;;;;3.84;86.27;100848.52;1741992;82;21934;-71
2022/01/28 10:24:16;;;;;;;13.33;3.03;;;;;;;3.90;86.17;100857.58;1742104;82;21023;-72
2022/01/28 10:27:17;;;;;;;15.00;4.03;;;;;;;3.98;86.07;100864.91;1741956;82;21026;-71
2022/01/28 10:29:33;;;;;;;12.90;3.70;;;;;;;4.03;85.99;100860.14;1734981;82;21505;-70
2022/01/28 10:32:10;;;;;;;15.88;3.58;;;;;;;4.10;85.84;100866.59;1742116;82;21022;-78
2022/01/28 10:34:50;;;;;;;14.60;3.87;;;;;;;4.14;85.67;100857.95;1742220;82;21109;-71
2022/01/28 10:37:20;;;;;;;15.97;3.90;;;;;;;4.18;85.58;100878.67;1741938;82;21456;-71
2022/01/28 10:39:54;;;;;;;13.22;3.40;;;;;;;4.25;85.58;100874.34;1742322;82;20991;-75
2022/01/28 10:42:42;;;;;;;13.03;3.40;;;;;;;4.28;85.43;100869.14;1741622;82;21469;-70
2022/01/28 10:45:16;;;;;;;20.53;4.03;;;;;;;4.29;85.22;100882.53;1741960;82;21031;-74
2022/01/28 10:47:46;;;;;;;18.70;6.10;;;;;;;4.30;85.20;100881.69;1741947;82;21790;-71
2022/01/28 10:50:32;;;;;;;16.03;5.30;;;;;;;4.29;85.01;100876.48;1741919;82;21007;-75
2022/01/28 10:53:10;;;;;;;18.73;4.43;;;;;;;4.32;84.99;100886.84;1741847;82;21027;-70
2022/01/28 10:55:43;;;;;;;16.90;4.53;;;;;;;4.34;84.86;100894.20;1742003;82;21038;-71
2022/01/28 10:58:16;;;;;;;14.50;3.70;;;;;;;4.37;84.85;100891.16;1739954;82;21012;-71
2022/01/28 11:00:49;;;;;;;11.43;3.50;;;;;;;4.39;84.74;100896.36;1741936;82;22055;-70
2022/01/28 11:03:26;;;;;;;10.87;2.67;;;;;;;4.41;84.56;100905.86;1741936;82;38285;-77
2022/01/28 11:05:48;;;;;;;;;;;;;;;4.42;84.34;100903.69;1743642;82;20986;-72
2022/01/28 11:08:16;;;;;;;11.50;2.93;;;;;;;4.44;84.12;100904.55;1742294;82;20953;-71
2022/01/28 11:10:44;;;;;;;11.37;2.83;;;;;;;4.45;84.06;100913.20;1741979;82;21027;-71
2022/01/28 11:13:11;;;;;;;11.47;2.83;;;;;;;4.46;83.96;100913.61;1742263;82;21280;-71
2022/01/28 11:15:38;;;;;;;8.73;2.73;;;;;;;4.47;83.78;100912.33;1741941;82;21485;-74
2022/01/28 11:18:09;;;;;;;10.97;2.83;;;;;;;4.52;83.69;100914.02;1742213;82;21247;-71
2022/01/28 11:21:04;;;;;;;15.40;3.43;;;;;;;4.55;83.59;100910.14;1742023;82;21035;-69
2022/01/28 11:23:40;;;;;;;15.13;3.70;;;;;;;4.60;83.53;100923.53;1742381;82;21465;-71
2022/01/28 11:26:46;;;;;;;14.63;4.90;;;;;;;4.62;83.42;100922.21;1736644;82;21854;-70
2022/01/28 11:29:21;;;;;;;13.77;3.70;;;;;;;4.65;83.30;100917.00;1742008;82;21007;-71
2022/01/28 11:31:57;;;;;;;16.40;3.50;;;;;;;4.64;82.97;100934.32;1741563;82;21023;-71
2022/01/28 11:34:32;;;;;;;18.43;5.37;;;;;;;4.66;82.85;100932.59;1742190;82;21003;-72
2022/01/28 11:37:16;;;;;;;13.57;4.03;;;;;;;4.69;82.74;100937.77;1741939;82;21090;-71
2022/01/28 11:39:46;;;;;;;17.00;3.80;;;;;;;4.70;82.60;100956.36;1741853;82;21928;-70
2022/01/28 11:42:28;;;;;;;8.33;2.63;;;;;;;4.74;82.58;100932.97;1741617;82;21513;-76
2022/01/28 11:45:00;;;;;;;11.47;2.67;;;;;;;4.76;82.42;100952.02;1742176;82;21058;-70
2022/01/28 11:47:53;;;;;;;12.17;3.10;;;;;;;4.78;82.27;100958.94;1741932;82;21004;-76
2022/01/28 11:50:23;;;;;;;9.27;2.83;;;;;;;4.83;82.26;100961.52;1742003;82;21038;-70
2022/01/28 11:52:54;;;;;;;9.45;2.75;;;;;;;4.84;82.03;100953.70;1741884;82;21933;-70
2022/01/28 11:55:26;;;;;;;16.82;4.58;;;;;;;4.84;81.89;100957.59;1741975;82;21070;-73
2022/01/28 11:58:01;;;;;;;18.03;3.60;;;;;;;4.86;81.73;100954.56;1742124;82;21007;-79
2022/01/28 12:00:36;;;;;;;11.87;3.00;;;;;;;4.87;81.72;100967.11;1740785;82;21022;-72
2022/01/28 12:03:20;;;;;;;15.37;3.33;;;;;;;4.86;81.46;100964.95;1741900;82;21011;-71
2022/01/28 12:05:52;;;;;;;16.63;3.47;;;;;;;4.81;81.21;100981.44;1720869;82;21141;-71
2022/01/28 12:08:20;;;;;;;13.20;3.30;;;;;;;4.80;81.13;100988.80;1742143;82;21042;-70
2022/01/28 12:10:50;;;;;;;14.77;2.93;;;;;;;4.78;81.02;100985.34;1742071;82;20999;-71
2022/01/28 12:13:21;;;;;;;12.28;3.02;;;;;;;4.76;80.92;100985.77;1742244;82;21015;-78
2022/01/28 12:18:53;;;;;;;11.73;3.27;;;;;;;4.69;80.81;100997.48;1664444;84;21083;-70
2022/01/28 12:21:34;;;;;;;11.70;3.10;;;;;;;4.70;80.71;101003.10;1686414;84;21024;-76
2022/01/28 12:24:25;;;;;;;13.27;3.10;;;;;;;4.70;80.58;101011.33;1680961;85;21043;-71
2022/01/28 12:27:10;;;;;;;14.27;3.07;;;;;;;4.71;80.55;101010.45;1681227;85;21027;-70
2022/01/28 12:29:56;;;;;;;15.43;3.00;;;;;;;4.74;80.49;101007.88;1681551;85;21556;-71
2022/01/28 12:32:23;;;;;;;17.93;2.70;;;;;;;4.75;80.50;101003.09;1681372;85;21134;-70
2022/01/28 12:34:51;;;;;;;14.40;2.80;;;;;;;4.74;80.27;101009.58;1681563;85;21054;-71
2022/01/28 12:37:23;;;;;;;11.03;2.37;;;;;;;4.72;80.24;101012.20;1681476;85;21094;-71
2022/01/28 12:40:03;;;;;;;13.97;3.07;;;;;;;4.70;80.09;101021.72;1666097;84;21082;-83
2022/01/28 12:42:32;;;;;;;12.57;2.70;;;;;;;4.66;79.84;101027.80;1667024;86;21072;-71
2022/01/28 12:45:00;;;;;;;9.60;3.27;;;;;;;4.64;79.97;101030.39;1667006;86;21309;-79
2022/01/28 12:47:34;;;;;;;11.35;2.83;;;;;;;4.62;79.44;101037.31;1667447;86;21112;-73
2022/01/28 12:50:03;;;;;;;23.30;9.53;;;;;;;4.59;79.67;101044.25;1667172;86;21673;-77
2022/01/28 12:52:34;;;;;;;14.17;3.47;;;;;;;4.55;79.69;101035.62;1668218;85;21098;-70
2022/01/28 12:55:02;;;;;;;17.48;3.65;;;;;;;4.53;79.59;101064.60;1681339;82;21560;-71
2022/01/28 12:57:30;;;;;;;14.83;5.33;;;;;;;4.49;79.60;101052.51;1742565;82;21155;-71
2022/01/28 12:59:58;;;;;;;14.90;3.80;;;;;;;4.47;79.66;101054.23;1742256;82;21032;-73
2022/01/28 13:02:27;;;;;;;14.63;3.63;;;;;;;4.46;79.58;101058.98;1756189;80;21028;-77
2022/01/28 13:10:08;;;;;;;17.37;2.70;;;;;;;4.42;79.61;101072.84;1761129;81;22024;-76
2022/01/28 13:12:35;;;;;;;14.13;3.23;;;;;;;4.40;79.47;101075.86;1761124;81;21472;-74